createdAt,value
2023-04-21T00:00:52.682Z,22.19
2023-04-21T00:03:21.926Z,22.22
2023-04-21T00:05:48.758Z,22.10
2023-04-21T00:08:16.856Z,22.21
2023-04-21T00:10:43.955Z,22.22
2023-04-21T00:13:10.903Z,22.18
2023-04-21T00:15:37.533Z,22.22
2023-04-21T00:18:04.508Z,22.16
2023-04-21T00:20:31.490Z,22.20
2023-04-21T00:22:58.626Z,22.20
2023-04-21T00:25:25.933Z,22.15
2023-04-21T00:27:52.592Z,22.16
2023-04-21T00:30:19.264Z,22.18
2023-04-21T00:32:46.240Z,22.16
2023-04-21T00:35:12.846Z,22.05
2023-04-21T00:37:40.411Z,22.15
2023-04-21T00:40:07.792Z,22.03
2023-04-21T00:42:37.017Z,22.17
2023-04-21T00:45:06.002Z,22.17
2023-04-21T00:47:32.725Z,22.15
2023-04-21T00:49:59.687Z,22.11
2023-04-21T00:52:27.152Z,22.11
2023-04-21T00:54:54.209Z,22.13
2023-04-21T00:57:21.476Z,22.13
2023-04-21T00:59:48.328Z,22.13
2023-04-21T01:02:17.002Z,22.08
2023-04-21T01:04:45.483Z,22.13
2023-04-21T01:07:12.859Z,22.12
2023-04-21T01:09:39.680Z,22.08
2023-04-21T01:12:11.158Z,22.07
2023-04-21T01:14:39.114Z,22.10
2023-04-21T01:17:06.244Z,22.11
2023-04-21T01:19:35.757Z,22.03
2023-04-21T01:22:03.747Z,22.10
2023-04-21T01:24:40.892Z,22.10
2023-04-21T01:27:19.034Z,22.09
2023-04-21T01:29:50.672Z,22.09
2023-04-21T01:32:20.406Z,22.09
2023-04-21T01:34:47.951Z,22.09
2023-04-21T01:37:20.965Z,22.06
2023-04-21T01:39:54.303Z,22.04
2023-04-21T01:42:26.864Z,22.03
2023-04-21T01:44:54.576Z,21.96
2023-04-21T01:47:22.434Z,21.96
2023-04-21T01:49:49.111Z,21.94
2023-04-21T01:52:15.969Z,21.92
2023-04-21T01:54:42.654Z,21.98
2023-04-21T01:57:09.373Z,21.87
2023-04-21T01:59:37.239Z,21.99
2023-04-21T02:02:04.526Z,22.00
2023-04-21T02:04:33.701Z,22.00
2023-04-21T02:07:00.423Z,21.99
2023-04-21T02:09:27.038Z,21.98
2023-04-21T02:11:55.421Z,21.98
2023-04-21T02:14:22.037Z,21.97
2023-04-21T02:16:48.661Z,21.97
2023-04-21T02:19:15.279Z,21.97
2023-04-21T02:21:41.843Z,21.96
2023-04-21T02:24:08.434Z,21.88
2023-04-21T02:26:35.040Z,21.89
2023-04-21T02:29:02.175Z,21.95
2023-04-21T02:31:29.162Z,21.94
2023-04-21T02:33:55.988Z,21.93
2023-04-21T02:36:22.534Z,21.93
2023-04-21T02:38:49.094Z,21.91
2023-04-21T02:41:15.673Z,21.90
2023-04-21T02:43:42.230Z,21.91
2023-04-21T02:46:09.174Z,21.90
2023-04-21T02:48:36.430Z,21.88
2023-04-21T02:51:04.272Z,21.89
2023-04-21T02:53:31.648Z,21.87
2023-04-21T02:55:58.303Z,21.85
2023-04-21T02:58:25.499Z,21.88
2023-04-21T03:00:52.113Z,21.85
2023-04-21T03:03:19.075Z,21.86
2023-04-21T03:05:45.972Z,21.84
2023-04-21T03:08:12.614Z,21.83
2023-04-21T03:10:39.215Z,21.83
2023-04-21T03:13:06.006Z,21.70
2023-04-21T03:15:32.549Z,21.80
2023-04-21T03:18:01.798Z,21.70
2023-04-21T03:20:28.704Z,21.78
2023-04-21T03:22:55.313Z,21.60
2023-04-21T03:25:22.223Z,21.77
2023-04-21T03:27:49.218Z,21.76
2023-04-21T03:30:15.884Z,21.75
2023-04-21T03:32:42.594Z,21.67
2023-04-21T03:35:09.300Z,21.70
2023-04-21T03:37:36.057Z,21.72
2023-04-21T03:40:06.076Z,21.74
2023-04-21T03:42:33.348Z,21.73
2023-04-21T03:45:03.917Z,21.73
2023-04-21T03:47:33.446Z,21.74
2023-04-21T03:50:00.263Z,21.72
2023-04-21T03:52:26.854Z,21.71
2023-04-21T03:54:53.798Z,21.70
2023-04-21T03:57:20.658Z,21.71
2023-04-21T03:59:47.169Z,21.71
2023-04-21T04:02:13.807Z,21.70
2023-04-21T04:04:40.562Z,21.69
2023-04-21T04:07:08.768Z,21.69
2023-04-21T04:09:35.364Z,21.66
2023-04-21T04:12:03.382Z,21.58
2023-04-21T04:14:30.296Z,21.40
2023-04-21T04:16:58.741Z,21.56
2023-04-21T04:19:30.865Z,21.55
2023-04-21T04:22:01.280Z,21.65
2023-04-21T04:24:28.215Z,21.65
2023-04-21T04:26:55.280Z,21.63
2023-04-21T04:29:22.686Z,21.62
2023-04-21T04:31:52.332Z,21.62
2023-04-21T04:34:19.607Z,21.62
2023-04-21T04:36:48.001Z,21.63
2023-04-21T04:39:16.356Z,21.52
2023-04-21T04:41:43.156Z,21.63
2023-04-21T04:44:11.466Z,21.63
2023-04-21T04:46:39.309Z,21.56
2023-04-21T04:49:05.974Z,21.64
2023-04-21T04:51:32.772Z,21.65
2023-04-21T04:53:59.493Z,21.65
2023-04-21T04:56:26.021Z,21.57
2023-04-21T04:58:52.710Z,21.63
2023-04-21T05:01:19.431Z,21.64
2023-04-21T05:03:46.843Z,21.61
2023-04-21T05:06:14.330Z,21.66
2023-04-21T05:08:43.740Z,21.66
2023-04-21T05:11:10.320Z,21.63
2023-04-21T05:13:39.632Z,21.64
2023-04-21T05:16:07.284Z,21.71
2023-04-21T05:18:33.827Z,21.63
2023-04-21T05:21:00.521Z,21.72
2023-04-21T05:23:27.304Z,21.74
2023-04-21T05:25:53.852Z,21.74
2023-04-21T05:28:20.488Z,21.76
2023-04-21T05:30:47.119Z,21.68
2023-04-21T05:33:13.930Z,21.77
2023-04-21T05:35:40.705Z,21.80
2023-04-21T05:38:07.263Z,21.82
2023-04-21T05:40:34.020Z,21.73
2023-04-21T05:43:00.650Z,21.80
2023-04-21T05:45:27.167Z,21.83
2023-04-21T05:47:53.722Z,21.84
2023-04-21T05:50:20.389Z,21.82
2023-04-21T05:52:46.938Z,21.72
2023-04-21T05:55:13.705Z,21.85
2023-04-21T05:57:40.338Z,21.86
2023-04-21T06:00:07.638Z,21.85
2023-04-21T06:02:34.305Z,21.85
2023-04-21T06:05:01.220Z,21.84
2023-04-21T06:07:28.146Z,21.71
2023-04-21T06:09:57.145Z,21.86
2023-04-21T06:12:23.687Z,21.85
2023-04-21T06:14:50.417Z,21.83
2023-04-21T06:17:17.955Z,21.88
2023-04-21T06:19:44.767Z,21.86
2023-04-21T06:22:11.322Z,21.86
2023-04-21T06:24:37.868Z,21.88
2023-04-21T06:27:09.363Z,21.89
2023-04-21T06:29:36.209Z,21.90
2023-04-21T06:32:02.859Z,21.91
2023-04-21T06:34:29.726Z,21.80
2023-04-21T06:36:56.258Z,21.90
2023-04-21T06:39:22.850Z,21.92
2023-04-21T06:41:49.435Z,21.92
2023-04-21T06:44:17.830Z,21.92
2023-04-21T06:46:44.705Z,21.94
2023-04-21T06:49:11.864Z,21.93
2023-04-21T06:51:39.373Z,21.94
2023-04-21T06:54:06.183Z,21.94
2023-04-21T06:56:33.372Z,21.91
2023-04-21T06:59:00.374Z,21.96
2023-04-21T07:01:26.994Z,21.97
2023-04-21T07:03:53.845Z,21.99
2023-04-21T07:06:20.535Z,21.86
2023-04-21T07:08:47.126Z,22.00
2023-04-21T07:11:15.548Z,21.98
2023-04-21T07:13:42.086Z,22.03
2023-04-21T07:16:08.662Z,22.04
2023-04-21T07:18:35.296Z,21.99
2023-04-21T07:21:01.881Z,22.05
2023-04-21T07:23:28.545Z,22.06
2023-04-21T07:25:57.752Z,22.07
2023-04-21T07:28:24.408Z,21.86
2023-04-21T07:30:53.872Z,22.10
2023-04-21T07:33:20.557Z,22.07
2023-04-21T07:35:47.306Z,22.02
2023-04-21T07:38:13.860Z,22.11
2023-04-21T07:40:40.807Z,22.10
2023-04-21T07:43:07.366Z,22.12
2023-04-21T07:45:33.876Z,22.12
2023-04-21T07:48:00.602Z,22.08
2023-04-21T07:50:27.230Z,22.04
2023-04-21T07:52:53.798Z,22.12
2023-04-21T07:55:23.318Z,22.12
2023-04-21T07:57:50.457Z,21.94
2023-04-21T08:00:17.398Z,22.03
2023-04-21T08:02:44.115Z,22.01
2023-04-21T08:05:11.212Z,21.99
2023-04-21T08:07:38.863Z,22.12
2023-04-21T08:10:07.801Z,22.12
2023-04-21T08:12:34.462Z,22.09
2023-04-21T08:15:05.709Z,22.13
2023-04-21T08:17:32.391Z,22.04
2023-04-21T08:19:59.677Z,22.12
2023-04-21T08:22:26.682Z,22.13
2023-04-21T08:24:53.302Z,22.14
2023-04-21T08:27:19.977Z,22.14
2023-04-21T08:29:46.626Z,22.14
2023-04-21T08:32:13.640Z,22.15
2023-04-21T08:34:40.364Z,22.03
2023-04-21T08:37:06.945Z,22.16
2023-04-21T08:39:33.769Z,22.16
2023-04-21T08:42:02.314Z,22.07
2023-04-21T08:44:28.860Z,22.17
2023-04-21T08:46:56.720Z,22.17
2023-04-21T08:49:24.471Z,22.18
2023-04-21T08:51:51.330Z,22.13
2023-04-21T08:54:17.913Z,22.18
2023-04-21T08:56:44.502Z,22.13
2023-04-21T08:59:11.166Z,22.15
2023-04-21T09:02:10.208Z,22.20
2023-04-21T09:04:45.139Z,22.18
2023-04-21T09:07:12.906Z,22.12
2023-04-21T09:09:52.484Z,22.14
2023-04-21T09:12:19.542Z,22.20
2023-04-21T09:14:46.551Z,22.19
2023-04-21T09:17:16.305Z,22.19
2023-04-21T09:19:43.379Z,22.20
2023-04-21T09:22:14.117Z,22.20
2023-04-21T09:24:58.088Z,22.19
2023-04-21T09:27:24.783Z,22.17
2023-04-21T09:29:51.649Z,22.22
2023-04-21T09:32:19.717Z,22.23
2023-04-21T09:34:47.378Z,22.24
2023-04-21T09:37:18.988Z,22.24
2023-04-21T09:40:03.609Z,22.25
2023-04-21T09:42:39.270Z,22.14
2023-04-21T09:45:29.038Z,22.26
2023-04-21T09:47:59.105Z,22.26
2023-04-21T09:51:01.785Z,22.28
2023-04-21T09:53:17.069Z,22.25
2023-04-21T09:55:48.318Z,22.29
2023-04-21T09:58:19.631Z,22.30
2023-04-21T10:00:47.288Z,22.30
2023-04-21T10:03:17.413Z,22.19
2023-04-21T10:05:44.266Z,22.19
2023-04-21T10:08:12.082Z,22.32
2023-04-21T10:10:39.236Z,22.27
2023-04-21T10:13:05.990Z,22.34
2023-04-21T10:15:35.575Z,22.24
2023-04-21T10:18:22.457Z,22.35
2023-04-21T10:20:56.503Z,22.36
2023-04-21T10:23:43.356Z,22.38
2023-04-21T10:26:11.914Z,22.39
2023-04-21T10:28:46.749Z,22.39
2023-04-21T10:31:51.241Z,22.40
2023-04-21T10:34:21.893Z,22.35
2023-04-21T10:36:51.829Z,22.41
2023-04-21T10:39:29.791Z,22.40
2023-04-21T10:42:00.552Z,22.35
2023-04-21T10:44:29.070Z,22.40
2023-04-21T10:46:58.956Z,22.24
2023-04-21T10:49:28.453Z,22.43
2023-04-21T10:51:57.790Z,22.43
2023-04-21T10:54:28.628Z,22.44
2023-04-21T10:56:59.208Z,22.44
2023-04-21T10:59:28.698Z,22.38
2023-04-21T11:01:55.913Z,22.43
2023-04-21T11:04:23.972Z,22.45
2023-04-21T11:07:14.104Z,22.46
2023-04-21T11:09:42.311Z,22.36
2023-04-21T11:12:11.163Z,22.47
2023-04-21T11:14:39.417Z,22.47
2023-04-21T11:17:17.535Z,22.48
2023-04-21T11:19:50.062Z,22.49
2023-04-21T11:22:18.491Z,22.48
2023-04-21T11:24:48.702Z,22.49
2023-04-21T11:27:15.560Z,22.50
2023-04-21T11:29:42.288Z,22.50
2023-04-21T11:32:09.400Z,22.51
2023-04-21T11:34:39.593Z,22.51
2023-04-21T11:37:14.111Z,22.51
2023-04-21T11:39:41.918Z,22.52
2023-04-21T11:42:08.483Z,22.46
2023-04-21T11:44:43.212Z,22.53
2023-04-21T11:47:12.883Z,22.54
2023-04-21T11:49:48.014Z,22.47
2023-04-21T11:52:22.760Z,22.54
2023-04-21T11:54:54.813Z,22.54
2023-04-21T11:57:22.893Z,22.32
2023-04-21T11:59:49.559Z,22.49
2023-04-21T12:02:34.661Z,22.55
2023-04-21T12:05:06.820Z,22.50
2023-04-21T12:07:35.700Z,22.56
2023-04-21T12:10:08.978Z,22.58
2023-04-21T12:12:39.177Z,22.57
2023-04-21T12:15:10.994Z,22.59
2023-04-21T12:17:38.644Z,22.58
2023-04-21T12:20:07.353Z,22.57
2023-04-21T12:22:34.025Z,22.53
2023-04-21T12:25:00.647Z,22.60
2023-04-21T12:27:27.884Z,22.59
2023-04-21T12:29:57.697Z,22.60
2023-04-21T12:32:24.492Z,22.59
2023-04-21T12:34:51.190Z,22.57
2023-04-21T12:37:18.766Z,22.58
2023-04-21T12:39:45.330Z,22.60
2023-04-21T12:42:12.090Z,22.60
2023-04-21T12:44:39.103Z,22.61
2023-04-21T12:47:06.302Z,22.61
2023-04-21T12:49:32.946Z,22.57
2023-04-21T12:51:59.686Z,22.60
2023-04-21T12:54:26.192Z,22.62
2023-04-21T12:56:53.125Z,22.63
2023-04-21T12:59:19.666Z,22.62
2023-04-21T13:01:46.357Z,22.63
2023-04-21T13:04:13.438Z,22.49
2023-04-21T13:06:40.649Z,22.62
2023-04-21T13:09:07.632Z,22.60
2023-04-21T13:11:34.553Z,22.63
2023-04-21T13:14:01.109Z,22.53
2023-04-21T13:16:30.078Z,22.62
2023-04-21T13:18:57.086Z,22.56
2023-04-21T13:21:23.681Z,22.64
2023-04-21T13:23:50.239Z,22.65
2023-04-21T13:26:17.561Z,22.65
2023-04-21T13:28:44.203Z,22.63
2023-04-21T13:31:11.302Z,22.66
2023-04-21T13:33:38.035Z,22.67
2023-04-21T13:36:05.378Z,22.67
2023-04-21T13:38:32.393Z,22.67
2023-04-21T13:40:59.013Z,22.68
2023-04-21T13:43:25.663Z,22.69
2023-04-21T13:45:52.503Z,22.68
2023-04-21T13:48:21.262Z,22.69
2023-04-21T13:50:48.046Z,22.64
2023-04-21T13:53:19.257Z,22.62
2023-04-21T13:55:47.561Z,22.64
2023-04-21T13:58:15.855Z,22.60
2023-04-21T14:00:42.934Z,22.69
2023-04-21T14:03:10.104Z,22.59
2023-04-21T14:05:37.154Z,22.62
2023-04-21T14:08:03.859Z,22.67
2023-04-21T14:10:31.196Z,22.70
2023-04-21T14:12:57.799Z,22.71
2023-04-21T14:15:26.289Z,22.71
2023-04-21T14:17:53.544Z,22.70
2023-04-21T14:20:20.376Z,22.72
2023-04-21T14:22:46.879Z,22.72
2023-04-21T14:25:15.337Z,22.72
2023-04-21T14:27:41.975Z,22.71
2023-04-21T14:30:10.460Z,22.59
2023-04-21T14:32:37.307Z,22.65
2023-04-21T14:35:05.588Z,22.72
2023-04-21T14:37:32.982Z,22.71
2023-04-21T14:39:59.845Z,22.67
2023-04-21T14:42:26.719Z,22.72
2023-04-21T14:44:53.722Z,22.73
2023-04-21T14:47:21.495Z,22.55
2023-04-21T14:49:49.853Z,22.72
2023-04-21T14:52:16.498Z,22.70
2023-04-21T14:54:43.328Z,22.72
2023-04-21T14:57:18.751Z,22.73
2023-04-21T14:59:48.492Z,22.70
2023-04-21T15:02:15.419Z,22.71
2023-04-21T15:04:42.352Z,22.70
2023-04-21T15:07:09.085Z,22.71
2023-04-21T15:09:36.434Z,22.71
2023-04-21T15:12:03.603Z,22.71
2023-04-21T15:14:30.881Z,22.71
2023-04-21T15:16:57.575Z,22.71
2023-04-21T15:19:25.754Z,22.71
2023-04-21T15:21:52.854Z,22.72
2023-04-21T15:24:19.523Z,22.73
2023-04-21T15:26:46.064Z,22.71
2023-04-21T15:29:12.723Z,22.74
2023-04-21T15:31:43.679Z,22.30
2023-04-21T15:34:10.559Z,22.73
2023-04-21T15:36:37.177Z,22.71
2023-04-21T15:39:03.989Z,22.67
2023-04-21T15:41:31.564Z,22.76
2023-04-21T15:43:59.943Z,22.69
2023-04-21T15:46:26.931Z,22.72
2023-04-21T15:48:54.024Z,22.73
2023-04-21T15:51:20.825Z,22.72
2023-04-21T15:53:48.910Z,22.73
2023-04-21T15:56:16.756Z,22.75
2023-04-21T15:58:43.642Z,22.75
2023-04-21T16:01:10.393Z,22.76
2023-04-21T16:03:37.296Z,22.75
2023-04-21T16:06:04.308Z,22.74
2023-04-21T16:08:33.138Z,22.75
2023-04-21T16:11:00.391Z,22.74
2023-04-21T16:13:27.393Z,22.73
2023-04-21T16:15:54.033Z,22.75
2023-04-21T16:18:20.983Z,22.63
2023-04-21T16:20:47.836Z,22.67
2023-04-21T16:23:15.379Z,22.63
2023-04-21T16:25:42.568Z,22.46
2023-04-21T16:28:09.767Z,22.75
2023-04-21T16:30:38.536Z,22.61
2023-04-21T16:33:05.337Z,22.13
2023-04-21T16:35:32.031Z,22.74
2023-04-21T16:37:58.749Z,22.62
2023-04-21T16:40:26.407Z,22.68
2023-04-21T16:42:53.102Z,22.71
2023-04-21T16:45:19.777Z,22.65
2023-04-21T16:47:46.653Z,22.61
2023-04-21T16:50:15.947Z,22.54
2023-04-21T16:52:42.538Z,22.67
2023-04-21T16:55:09.284Z,22.67
2023-04-21T16:57:36.190Z,22.60
2023-04-21T17:00:06.877Z,22.65
2023-04-21T17:02:34.154Z,22.63
2023-04-21T17:05:01.149Z,22.64
2023-04-21T17:07:27.892Z,22.63
2023-04-21T17:09:54.570Z,22.61
2023-04-21T17:12:21.540Z,22.61
2023-04-21T17:14:48.582Z,22.60
2023-04-21T17:17:15.612Z,22.52
2023-04-21T17:19:42.247Z,22.56
2023-04-21T17:22:09.150Z,22.58
2023-04-21T17:24:51.833Z,22.58
2023-04-21T17:27:21.407Z,22.53
2023-04-21T17:29:48.193Z,22.56
2023-04-21T17:32:18.031Z,22.38
2023-04-21T17:34:45.068Z,22.54
2023-04-21T17:37:11.657Z,22.54
2023-04-21T17:39:38.673Z,22.52
2023-04-21T17:42:05.336Z,22.51
2023-04-21T17:44:31.908Z,22.50
2023-04-21T17:46:58.459Z,22.51
2023-04-21T17:49:25.428Z,22.43
2023-04-21T17:51:52.098Z,22.49
2023-04-21T17:54:19.085Z,22.48
2023-04-21T17:56:46.310Z,22.40
2023-04-21T17:59:13.345Z,22.47
2023-04-21T18:01:39.880Z,22.46
2023-04-21T18:04:06.985Z,22.45
2023-04-21T18:06:34.344Z,22.44
2023-04-21T18:09:01.345Z,22.43
2023-04-21T18:11:27.941Z,22.20
2023-04-21T18:13:54.582Z,22.41
2023-04-21T18:16:21.127Z,22.32
2023-04-21T18:18:47.788Z,22.39
2023-04-21T18:21:17.805Z,22.37
2023-04-21T18:23:44.624Z,22.32
2023-04-21T18:26:11.618Z,22.36
2023-04-21T18:28:38.222Z,22.36
2023-04-21T18:31:04.860Z,22.34
2023-04-21T18:33:31.591Z,22.33
2023-04-21T18:35:58.370Z,22.26
2023-04-21T18:38:25.263Z,22.31
2023-04-21T18:40:51.864Z,22.30
2023-04-21T18:43:18.476Z,22.31
2023-04-21T18:45:45.172Z,22.29
2023-04-21T18:48:12.166Z,22.28
2023-04-21T18:50:40.835Z,22.28
2023-04-21T18:53:08.470Z,22.27
2023-04-21T18:55:36.135Z,22.25
2023-04-21T18:58:02.894Z,22.23
2023-04-21T19:00:31.881Z,22.15
2023-04-21T19:03:02.536Z,22.23
2023-04-21T19:05:31.521Z,22.23
2023-04-21T19:07:58.698Z,22.13
2023-04-21T19:10:25.872Z,22.12
2023-04-21T19:12:53.811Z,22.21
2023-04-21T19:15:22.240Z,22.20
2023-04-21T19:17:48.954Z,22.19
2023-04-21T19:20:15.698Z,22.17
2023-04-21T19:22:42.500Z,22.16
2023-04-21T19:25:09.675Z,22.18
2023-04-21T19:27:36.945Z,22.09
2023-04-21T19:30:06.647Z,22.16
2023-04-21T19:32:33.465Z,22.13
2023-04-21T19:35:00.103Z,22.07
2023-04-21T19:37:28.030Z,22.14
2023-04-21T19:39:54.829Z,22.13
2023-04-21T19:42:21.648Z,22.13
2023-04-21T19:44:50.588Z,22.13
2023-04-21T19:47:17.395Z,22.06
2023-04-21T19:49:43.980Z,22.06
2023-04-21T19:52:10.736Z,22.10
2023-04-21T19:54:37.593Z,22.10
2023-04-21T19:57:07.183Z,22.09
2023-04-21T19:59:36.442Z,22.09
2023-04-21T20:02:03.579Z,22.07
2023-04-21T20:04:31.013Z,22.06
2023-04-21T20:06:58.001Z,22.05
2023-04-21T20:09:24.565Z,22.06
2023-04-21T20:11:51.353Z,21.91
2023-04-21T20:14:18.922Z,22.03
2023-04-21T20:16:46.466Z,22.03
2023-04-21T20:19:13.298Z,22.02
2023-04-21T20:21:43.981Z,22.01
2023-04-21T20:24:13.334Z,22.00
2023-04-21T20:26:39.959Z,21.95
2023-04-21T20:29:07.236Z,21.98
2023-04-21T20:31:34.222Z,21.96
2023-04-21T20:34:00.956Z,21.83
2023-04-21T20:36:28.508Z,21.96
2023-04-21T20:38:57.555Z,21.97
2023-04-21T20:41:24.167Z,21.96
2023-04-21T20:43:50.861Z,21.96
2023-04-21T20:46:18.506Z,21.92
2023-04-21T20:48:45.162Z,21.87
2023-04-21T20:51:12.244Z,21.94
2023-04-21T20:53:38.834Z,21.86
2023-04-21T20:56:05.588Z,21.93
2023-04-21T20:58:32.818Z,21.85
2023-04-21T21:00:59.351Z,21.91
2023-04-21T21:03:26.117Z,21.91
2023-04-21T21:05:53.231Z,21.90
2023-04-21T21:08:20.169Z,21.88
2023-04-21T21:10:46.772Z,21.90
2023-04-21T21:13:13.481Z,21.81
2023-04-21T21:15:40.243Z,21.89
2023-04-21T21:18:07.241Z,21.88
2023-04-21T21:20:33.911Z,21.88
2023-04-21T21:23:00.533Z,21.88
2023-04-21T21:25:27.169Z,21.78
2023-04-21T21:27:53.829Z,21.86
2023-04-21T21:30:20.563Z,21.72
2023-04-21T21:32:47.709Z,21.85
2023-04-21T21:35:14.427Z,21.85
2023-04-21T21:37:41.182Z,21.84
2023-04-21T21:40:09.258Z,21.85
2023-04-21T21:42:37.242Z,21.83
2023-04-21T21:45:04.104Z,21.64
2023-04-21T21:47:30.941Z,21.70
2023-04-21T21:49:58.867Z,21.81
2023-04-21T21:52:28.656Z,21.82
2023-04-21T21:54:55.742Z,21.73
2023-04-21T21:57:22.626Z,21.81
2023-04-21T21:59:49.210Z,21.81
2023-04-21T22:02:15.874Z,21.69
2023-04-21T22:04:42.995Z,21.80
2023-04-21T22:07:09.649Z,21.72
2023-04-21T22:09:37.256Z,21.79
2023-04-21T22:12:06.712Z,21.78
2023-04-21T22:14:35.926Z,21.78
2023-04-21T22:17:02.922Z,21.78
2023-04-21T22:19:31.121Z,21.77
2023-04-21T22:21:57.994Z,21.76
2023-04-21T22:24:24.506Z,21.77
2023-04-21T22:26:51.136Z,21.76
2023-04-21T22:29:17.839Z,21.76
2023-04-21T22:31:44.688Z,21.74
2023-04-21T22:34:14.916Z,21.74
2023-04-21T22:36:41.586Z,21.73
2023-04-21T22:39:08.116Z,21.70
2023-04-21T22:41:38.354Z,21.73
2023-04-21T22:44:05.539Z,21.71
2023-04-21T22:46:33.465Z,21.71
2023-04-21T22:49:02.428Z,21.58
2023-04-21T22:51:29.808Z,21.70
2023-04-21T22:53:56.630Z,21.69
2023-04-21T22:56:23.342Z,21.70
2023-04-21T22:58:50.001Z,21.69
2023-04-21T23:01:16.769Z,21.68
2023-04-21T23:03:43.601Z,21.60
2023-04-21T23:06:10.139Z,21.66
2023-04-21T23:08:36.687Z,21.57
2023-04-21T23:11:06.303Z,21.67
2023-04-21T23:13:32.928Z,21.66
2023-04-21T23:15:59.628Z,21.66
2023-04-21T23:18:26.318Z,21.65
2023-04-21T23:20:53.034Z,21.57
2023-04-21T23:23:19.836Z,21.47
2023-04-21T23:25:46.409Z,21.65
2023-04-21T23:28:12.991Z,21.63
2023-04-21T23:30:39.541Z,21.55
2023-04-21T23:33:06.490Z,21.55
2023-04-21T23:35:33.149Z,21.62
2023-04-21T23:37:59.677Z,21.60
2023-04-21T23:40:26.245Z,21.60
2023-04-21T23:42:52.845Z,21.60
2023-04-21T23:45:19.560Z,21.59
2023-04-21T23:47:46.261Z,21.60
2023-04-21T23:50:12.933Z,21.52
2023-04-21T23:52:42.022Z,21.57
2023-04-21T23:55:10.115Z,21.57
2023-04-21T23:57:37.004Z,21.58
